sensor_id;sensor_type;location;lat;lon;timestamp;P1;durP1;ratioP1;P2;durP2;ratioP2
2548;SDS011;1284;53.520;10.248;2023-02-26T00:00:57;0.55;;;0.55;;
2548;SDS011;1284;53.520;10.248;2023-02-26T00:03:22;0.30;;;0.30;;
2548;SDS011;1284;53.520;10.248;2023-02-26T00:05:47;0.30;;;0.30;;
2548;SDS011;1284;53.520;10.248;2023-02-26T00:08:13;0.40;;;0.40;;
2548;SDS011;1284;53.520;10.248;2023-02-26T00:10:38;0.38;;;0.38;;
2548;SDS011;1284;53.520;10.248;2023-02-26T00:13:04;0.30;;;0.30;;
2548;SDS011;1284;53.520;10.248;2023-02-26T00:15:30;0.30;;;0.30;;
2548;SDS011;1284;53.520;10.248;2023-02-26T00:18:05;0.20;;;0.20;;
2548;SDS011;1284;53.520;10.248;2023-02-26T00:20:35;0.30;;;0.30;;
2548;SDS011;1284;53.520;10.248;2023-02-26T00:23:01;0.30;;;0.30;;
2548;SDS011;1284;53.520;10.248;2023-02-26T00:25:26;0.40;;;0.40;;
2548;SDS011;1284;53.520;10.248;2023-02-26T00:27:52;0.52;;;0.52;;
2548;SDS011;1284;53.520;10.248;2023-02-26T00:30:17;0.40;;;0.40;;
2548;SDS011;1284;53.520;10.248;2023-02-26T00:32:43;0.40;;;0.40;;
2548;SDS011;1284;53.520;10.248;2023-02-26T00:35:11;0.40;;;0.40;;
2548;SDS011;1284;53.520;10.248;2023-02-26T00:43:05;0.30;;;0.30;;
2548;SDS011;1284;53.520;10.248;2023-02-26T00:45:33;0.40;;;0.40;;
2548;SDS011;1284;53.520;10.248;2023-02-26T00:48:06;0.30;;;0.30;;
2548;SDS011;1284;53.520;10.248;2023-02-26T00:50:36;0.30;;;0.30;;
2548;SDS011;1284;53.520;10.248;2023-02-26T00:53:21;0.30;;;0.30;;
2548;SDS011;1284;53.520;10.248;2023-02-26T00:56:00;0.40;;;0.40;;
2548;SDS011;1284;53.520;10.248;2023-02-26T00:58:25;0.30;;;0.30;;
2548;SDS011;1284;53.520;10.248;2023-02-26T01:00:50;0.30;;;0.30;;
2548;SDS011;1284;53.520;10.248;2023-02-26T01:03:16;0.40;;;0.40;;
2548;SDS011;1284;53.520;10.248;2023-02-26T01:05:42;0.40;;;0.40;;
2548;SDS011;1284;53.520;10.248;2023-02-26T01:08:11;0.30;;;0.30;;
2548;SDS011;1284;53.520;10.248;2023-02-26T01:10:46;0.30;;;0.30;;
2548;SDS011;1284;53.520;10.248;2023-02-26T01:13:11;0.40;;;0.40;;
2548;SDS011;1284;53.520;10.248;2023-02-26T01:15:37;0.40;;;0.40;;
2548;SDS011;1284;53.520;10.248;2023-02-26T01:18:10;0.40;;;0.40;;
2548;SDS011;1284;53.520;10.248;2023-02-26T01:20:56;0.40;;;0.40;;
2548;SDS011;1284;53.520;10.248;2023-02-26T01:23:28;0.40;;;0.40;;
2548;SDS011;1284;53.520;10.248;2023-02-26T01:26:01;0.30;;;0.30;;
2548;SDS011;1284;53.520;10.248;2023-02-26T01:28:31;0.40;;;0.40;;
2548;SDS011;1284;53.520;10.248;2023-02-26T01:30:57;0.30;;;0.30;;
2548;SDS011;1284;53.520;10.248;2023-02-26T01:33:27;0.30;;;0.30;;
2548;SDS011;1284;53.520;10.248;2023-02-26T01:36:02;0.50;;;0.50;;
2548;SDS011;1284;53.520;10.248;2023-02-26T01:46:44;0.40;;;0.40;;
2548;SDS011;1284;53.520;10.248;2023-02-26T01:49:26;0.40;;;0.40;;
2548;SDS011;1284;53.520;10.248;2023-02-26T01:51:59;0.30;;;0.30;;
2548;SDS011;1284;53.520;10.248;2023-02-26T01:54:31;0.38;;;0.38;;
2548;SDS011;1284;53.520;10.248;2023-02-26T01:59:30;0.30;;;0.30;;
2548;SDS011;1284;53.520;10.248;2023-02-26T02:01:57;0.30;;;0.30;;
2548;SDS011;1284;53.520;10.248;2023-02-26T02:04:26;0.40;;;0.40;;
2548;SDS011;1284;53.520;10.248;2023-02-26T02:06:52;0.40;;;0.40;;
2548;SDS011;1284;53.520;10.248;2023-02-26T02:09:19;0.43;;;0.43;;
2548;SDS011;1284;53.520;10.248;2023-02-26T02:11:52;0.30;;;0.30;;
2548;SDS011;1284;53.520;10.248;2023-02-26T02:14:28;0.32;;;0.32;;
2548;SDS011;1284;53.520;10.248;2023-02-26T02:27:34;0.38;;;0.38;;
2548;SDS011;1284;53.520;10.248;2023-02-26T02:32:48;0.38;;;0.38;;
2548;SDS011;1284;53.520;10.248;2023-02-26T02:35:20;0.55;;;0.55;;
2548;SDS011;1284;53.520;10.248;2023-02-26T02:40:23;0.30;;;0.30;;
2548;SDS011;1284;53.520;10.248;2023-02-26T02:43:14;0.35;;;0.35;;
2548;SDS011;1284;53.520;10.248;2023-02-26T02:45:57;0.40;;;0.40;;
2548;SDS011;1284;53.520;10.248;2023-02-26T02:51:20;0.70;;;0.70;;
2548;SDS011;1284;53.520;10.248;2023-02-26T02:53:53;0.30;;;0.30;;
2548;SDS011;1284;53.520;10.248;2023-02-26T02:56:24;0.40;;;0.40;;
2548;SDS011;1284;53.520;10.248;2023-02-26T02:58:54;0.40;;;0.40;;
2548;SDS011;1284;53.520;10.248;2023-02-26T03:01:29;0.55;;;0.55;;
2548;SDS011;1284;53.520;10.248;2023-02-26T03:04:04;0.50;;;0.50;;
2548;SDS011;1284;53.520;10.248;2023-02-26T03:06:32;0.30;;;0.30;;
2548;SDS011;1284;53.520;10.248;2023-02-26T03:08:59;0.40;;;0.40;;
2548;SDS011;1284;53.520;10.248;2023-02-26T03:11:25;0.40;;;0.40;;
2548;SDS011;1284;53.520;10.248;2023-02-26T03:13:51;0.30;;;0.30;;
2548;SDS011;1284;53.520;10.248;2023-02-26T03:16:42;0.40;;;0.40;;
2548;SDS011;1284;53.520;10.248;2023-02-26T03:22:18;0.40;;;0.40;;
2548;SDS011;1284;53.520;10.248;2023-02-26T03:25:02;0.40;;;0.40;;
2548;SDS011;1284;53.520;10.248;2023-02-26T03:27:48;0.38;;;0.38;;
2548;SDS011;1284;53.520;10.248;2023-02-26T03:38:41;0.40;;;0.40;;
2548;SDS011;1284;53.520;10.248;2023-02-26T03:41:12;0.30;;;0.30;;
2548;SDS011;1284;53.520;10.248;2023-02-26T03:46:57;0.40;;;0.40;;
2548;SDS011;1284;53.520;10.248;2023-02-26T03:49:31;0.30;;;0.30;;
2548;SDS011;1284;53.520;10.248;2023-02-26T03:52:00;0.40;;;0.40;;
2548;SDS011;1284;53.520;10.248;2023-02-26T03:54:49;0.30;;;0.30;;
2548;SDS011;1284;53.520;10.248;2023-02-26T03:57:43;0.30;;;0.30;;
2548;SDS011;1284;53.520;10.248;2023-02-26T04:00:39;0.40;;;0.40;;
2548;SDS011;1284;53.520;10.248;2023-02-26T04:06:00;0.50;;;0.50;;
2548;SDS011;1284;53.520;10.248;2023-02-26T04:08:27;0.40;;;0.40;;
2548;SDS011;1284;53.520;10.248;2023-02-26T04:10:57;0.40;;;0.40;;
2548;SDS011;1284;53.520;10.248;2023-02-26T04:13:28;0.30;;;0.30;;
2548;SDS011;1284;53.520;10.248;2023-02-26T04:15:54;0.40;;;0.40;;
2548;SDS011;1284;53.520;10.248;2023-02-26T04:18:20;1.27;;;0.40;;
2548;SDS011;1284;53.520;10.248;2023-02-26T04:20:45;0.30;;;0.30;;
2548;SDS011;1284;53.520;10.248;2023-02-26T04:23:11;0.30;;;0.30;;
2548;SDS011;1284;53.520;10.248;2023-02-26T04:25:37;0.40;;;0.40;;
2548;SDS011;1284;53.520;10.248;2023-02-26T04:28:04;0.30;;;0.30;;
2548;SDS011;1284;53.520;10.248;2023-02-26T04:30:31;0.30;;;0.30;;
2548;SDS011;1284;53.520;10.248;2023-02-26T04:32:57;0.38;;;0.38;;
2548;SDS011;1284;53.520;10.248;2023-02-26T04:35:23;0.30;;;0.30;;
2548;SDS011;1284;53.520;10.248;2023-02-26T04:37:49;0.22;;;0.22;;
2548;SDS011;1284;53.520;10.248;2023-02-26T04:40:15;0.38;;;0.38;;
2548;SDS011;1284;53.520;10.248;2023-02-26T04:42:41;0.60;;;0.60;;
2548;SDS011;1284;53.520;10.248;2023-02-26T04:45:07;0.40;;;0.40;;
2548;SDS011;1284;53.520;10.248;2023-02-26T04:47:35;0.30;;;0.30;;
2548;SDS011;1284;53.520;10.248;2023-02-26T04:50:01;0.40;;;0.40;;
2548;SDS011;1284;53.520;10.248;2023-02-26T04:52:29;0.30;;;0.30;;
2548;SDS011;1284;53.520;10.248;2023-02-26T04:54:55;0.38;;;0.38;;
2548;SDS011;1284;53.520;10.248;2023-02-26T04:57:21;0.32;;;0.32;;
2548;SDS011;1284;53.520;10.248;2023-02-26T04:59:46;0.30;;;0.30;;
2548;SDS011;1284;53.520;10.248;2023-02-26T05:02:12;0.30;;;0.30;;
2548;SDS011;1284;53.520;10.248;2023-02-26T05:04:40;0.30;;;0.30;;
2548;SDS011;1284;53.520;10.248;2023-02-26T05:07:06;0.40;;;0.40;;
2548;SDS011;1284;53.520;10.248;2023-02-26T05:09:31;0.30;;;0.30;;
2548;SDS011;1284;53.520;10.248;2023-02-26T05:11:57;0.35;;;0.35;;
2548;SDS011;1284;53.520;10.248;2023-02-26T05:14:22;0.32;;;0.32;;
2548;SDS011;1284;53.520;10.248;2023-02-26T05:16:48;0.43;;;0.43;;
2548;SDS011;1284;53.520;10.248;2023-02-26T05:19:14;0.30;;;0.30;;
2548;SDS011;1284;53.520;10.248;2023-02-26T05:21:40;0.40;;;0.40;;
2548;SDS011;1284;53.520;10.248;2023-02-26T05:24:25;0.30;;;0.30;;
2548;SDS011;1284;53.520;10.248;2023-02-26T05:26:51;0.50;;;0.50;;
2548;SDS011;1284;53.520;10.248;2023-02-26T05:29:16;0.30;;;0.30;;
2548;SDS011;1284;53.520;10.248;2023-02-26T05:31:43;0.30;;;0.30;;
2548;SDS011;1284;53.520;10.248;2023-02-26T05:34:09;0.30;;;0.30;;
2548;SDS011;1284;53.520;10.248;2023-02-26T05:36:34;0.38;;;0.38;;
2548;SDS011;1284;53.520;10.248;2023-02-26T05:38:59;0.30;;;0.30;;
2548;SDS011;1284;53.520;10.248;2023-02-26T05:41:25;0.20;;;0.20;;
2548;SDS011;1284;53.520;10.248;2023-02-26T05:43:51;0.35;;;0.35;;
2548;SDS011;1284;53.520;10.248;2023-02-26T05:46:16;0.55;;;0.45;;
2548;SDS011;1284;53.520;10.248;2023-02-26T05:48:41;0.40;;;0.40;;
2548;SDS011;1284;53.520;10.248;2023-02-26T05:51:07;0.30;;;0.30;;
2548;SDS011;1284;53.520;10.248;2023-02-26T05:53:34;0.40;;;0.40;;
2548;SDS011;1284;53.520;10.248;2023-02-26T05:55:59;0.40;;;0.40;;
2548;SDS011;1284;53.520;10.248;2023-02-26T05:58:25;0.43;;;0.43;;
2548;SDS011;1284;53.520;10.248;2023-02-26T06:00:50;0.32;;;0.32;;
2548;SDS011;1284;53.520;10.248;2023-02-26T06:03:16;0.40;;;0.40;;
2548;SDS011;1284;53.520;10.248;2023-02-26T06:05:41;0.30;;;0.30;;
2548;SDS011;1284;53.520;10.248;2023-02-26T06:08:07;0.40;;;0.40;;
2548;SDS011;1284;53.520;10.248;2023-02-26T06:10:32;0.30;;;0.30;;
2548;SDS011;1284;53.520;10.248;2023-02-26T06:12:58;0.32;;;0.32;;
2548;SDS011;1284;53.520;10.248;2023-02-26T06:15:23;0.30;;;0.30;;
2548;SDS011;1284;53.520;10.248;2023-02-26T06:17:49;0.30;;;0.30;;
2548;SDS011;1284;53.520;10.248;2023-02-26T06:20:15;0.43;;;0.43;;
2548;SDS011;1284;53.520;10.248;2023-02-26T06:22:40;0.30;;;0.30;;
2548;SDS011;1284;53.520;10.248;2023-02-26T06:25:06;0.40;;;0.40;;
2548;SDS011;1284;53.520;10.248;2023-02-26T06:27:32;0.50;;;0.50;;
2548;SDS011;1284;53.520;10.248;2023-02-26T06:29:57;0.43;;;0.43;;
2548;SDS011;1284;53.520;10.248;2023-02-26T06:32:23;0.30;;;0.30;;
2548;SDS011;1284;53.520;10.248;2023-02-26T06:34:48;0.30;;;0.30;;
2548;SDS011;1284;53.520;10.248;2023-02-26T06:37:14;0.40;;;0.40;;
2548;SDS011;1284;53.520;10.248;2023-02-26T06:39:43;0.40;;;0.40;;
2548;SDS011;1284;53.520;10.248;2023-02-26T06:42:08;0.32;;;0.32;;
2548;SDS011;1284;53.520;10.248;2023-02-26T06:44:33;0.30;;;0.30;;
2548;SDS011;1284;53.520;10.248;2023-02-26T06:46:59;0.35;;;0.35;;
2548;SDS011;1284;53.520;10.248;2023-02-26T06:49:24;0.70;;;0.70;;
2548;SDS011;1284;53.520;10.248;2023-02-26T06:51:50;0.40;;;0.40;;
2548;SDS011;1284;53.520;10.248;2023-02-26T06:54:16;0.40;;;0.40;;
2548;SDS011;1284;53.520;10.248;2023-02-26T06:56:41;0.40;;;0.40;;
2548;SDS011;1284;53.520;10.248;2023-02-26T06:59:07;0.40;;;0.40;;
2548;SDS011;1284;53.520;10.248;2023-02-26T07:01:32;0.60;;;0.60;;
2548;SDS011;1284;53.520;10.248;2023-02-26T07:03:58;0.40;;;0.40;;
2548;SDS011;1284;53.520;10.248;2023-02-26T07:06:23;0.35;;;0.35;;
2548;SDS011;1284;53.520;10.248;2023-02-26T07:08:49;0.40;;;0.40;;
2548;SDS011;1284;53.520;10.248;2023-02-26T07:11:14;0.30;;;0.30;;
2548;SDS011;1284;53.520;10.248;2023-02-26T07:13:40;0.40;;;0.40;;
2548;SDS011;1284;53.520;10.248;2023-02-26T07:16:05;0.38;;;0.38;;
2548;SDS011;1284;53.520;10.248;2023-02-26T07:18:32;0.30;;;0.30;;
2548;SDS011;1284;53.520;10.248;2023-02-26T07:20:58;0.40;;;0.40;;
2548;SDS011;1284;53.520;10.248;2023-02-26T07:23:24;0.35;;;0.35;;
2548;SDS011;1284;53.520;10.248;2023-02-26T07:25:49;0.20;;;0.20;;
2548;SDS011;1284;53.520;10.248;2023-02-26T07:28:15;0.30;;;0.30;;
2548;SDS011;1284;53.520;10.248;2023-02-26T07:30:40;0.47;;;0.47;;
2548;SDS011;1284;53.520;10.248;2023-02-26T07:33:07;0.30;;;0.30;;
2548;SDS011;1284;53.520;10.248;2023-02-26T07:35:33;0.30;;;0.30;;
2548;SDS011;1284;53.520;10.248;2023-02-26T07:37:59;0.40;;;0.40;;
2548;SDS011;1284;53.520;10.248;2023-02-26T07:40:25;0.40;;;0.40;;
2548;SDS011;1284;53.520;10.248;2023-02-26T07:42:50;0.25;;;0.25;;
2548;SDS011;1284;53.520;10.248;2023-02-26T07:45:17;1.23;;;0.60;;
2548;SDS011;1284;53.520;10.248;2023-02-26T07:47:46;0.30;;;0.30;;
2548;SDS011;1284;53.520;10.248;2023-02-26T07:50:13;0.30;;;0.30;;
2548;SDS011;1284;53.520;10.248;2023-02-26T07:52:38;0.40;;;0.40;;
2548;SDS011;1284;53.520;10.248;2023-02-26T07:55:04;0.50;;;0.50;;
2548;SDS011;1284;53.520;10.248;2023-02-26T07:57:30;0.30;;;0.30;;
2548;SDS011;1284;53.520;10.248;2023-02-26T07:59:55;0.40;;;0.40;;
2548;SDS011;1284;53.520;10.248;2023-02-26T08:02:21;0.30;;;0.30;;
2548;SDS011;1284;53.520;10.248;2023-02-26T08:04:47;0.30;;;0.30;;
2548;SDS011;1284;53.520;10.248;2023-02-26T08:07:13;0.30;;;0.30;;
2548;SDS011;1284;53.520;10.248;2023-02-26T08:09:39;0.32;;;0.32;;
2548;SDS011;1284;53.520;10.248;2023-02-26T08:12:04;0.30;;;0.30;;
2548;SDS011;1284;53.520;10.248;2023-02-26T08:14:30;0.40;;;0.40;;
2548;SDS011;1284;53.520;10.248;2023-02-26T08:16:55;0.30;;;0.30;;
2548;SDS011;1284;53.520;10.248;2023-02-26T08:19:21;0.40;;;0.40;;
2548;SDS011;1284;53.520;10.248;2023-02-26T08:21:46;0.30;;;0.30;;
2548;SDS011;1284;53.520;10.248;2023-02-26T08:24:12;0.30;;;0.30;;
2548;SDS011;1284;53.520;10.248;2023-02-26T08:26:37;0.30;;;0.30;;
2548;SDS011;1284;53.520;10.248;2023-02-26T08:29:03;0.28;;;0.28;;
2548;SDS011;1284;53.520;10.248;2023-02-26T08:31:29;0.30;;;0.30;;
2548;SDS011;1284;53.520;10.248;2023-02-26T08:33:59;0.85;;;0.85;;
2548;SDS011;1284;53.520;10.248;2023-02-26T08:36:24;0.30;;;0.30;;
2548;SDS011;1284;53.520;10.248;2023-02-26T08:38:53;0.30;;;0.30;;
2548;SDS011;1284;53.520;10.248;2023-02-26T08:41:18;0.30;;;0.30;;
2548;SDS011;1284;53.520;10.248;2023-02-26T08:43:44;0.30;;;0.30;;
2548;SDS011;1284;53.520;10.248;2023-02-26T08:46:09;0.20;;;0.20;;
2548;SDS011;1284;53.520;10.248;2023-02-26T08:48:35;1.17;;;0.30;;
2548;SDS011;1284;53.520;10.248;2023-02-26T08:51:00;0.20;;;0.20;;
2548;SDS011;1284;53.520;10.248;2023-02-26T08:53:26;0.20;;;0.20;;
2548;SDS011;1284;53.520;10.248;2023-02-26T08:55:51;0.20;;;0.20;;
2548;SDS011;1284;53.520;10.248;2023-02-26T08:58:18;0.20;;;0.20;;
2548;SDS011;1284;53.520;10.248;2023-02-26T09:00:44;0.20;;;0.20;;
2548;SDS011;1284;53.520;10.248;2023-02-26T09:03:10;0.38;;;0.38;;
2548;SDS011;1284;53.520;10.248;2023-02-26T09:05:36;0.10;;;0.10;;
2548;SDS011;1284;53.520;10.248;2023-02-26T09:08:03;0.20;;;0.20;;
2548;SDS011;1284;53.520;10.248;2023-02-26T09:10:28;0.50;;;0.20;;
2548;SDS011;1284;53.520;10.248;2023-02-26T09:12:54;0.20;;;0.20;;
2548;SDS011;1284;53.520;10.248;2023-02-26T09:15:20;0.17;;;0.17;;
2548;SDS011;1284;53.520;10.248;2023-02-26T09:17:46;0.20;;;0.20;;
2548;SDS011;1284;53.520;10.248;2023-02-26T09:20:13;0.57;;;0.30;;
2548;SDS011;1284;53.520;10.248;2023-02-26T09:22:39;0.30;;;0.30;;
2548;SDS011;1284;53.520;10.248;2023-02-26T09:25:05;0.52;;;0.52;;
2548;SDS011;1284;53.520;10.248;2023-02-26T09:27:31;0.20;;;0.20;;
2548;SDS011;1284;53.520;10.248;2023-02-26T09:29:57;0.10;;;0.10;;
2548;SDS011;1284;53.520;10.248;2023-02-26T09:32:23;0.10;;;0.10;;
2548;SDS011;1284;53.520;10.248;2023-02-26T09:34:50;0.10;;;0.10;;
2548;SDS011;1284;53.520;10.248;2023-02-26T09:37:15;0.70;;;0.20;;
2548;SDS011;1284;53.520;10.248;2023-02-26T09:39:41;0.10;;;0.10;;
2548;SDS011;1284;53.520;10.248;2023-02-26T09:45:01;0.10;;;0.10;;
2548;SDS011;1284;53.520;10.248;2023-02-26T09:48:01;0.10;;;0.10;;
2548;SDS011;1284;53.520;10.248;2023-02-26T09:50:24;0.95;;;0.90;;
2548;SDS011;1284;53.520;10.248;2023-02-26T09:53:00;0.20;;;0.20;;
2548;SDS011;1284;53.520;10.248;2023-02-26T09:55:38;0.10;;;0.10;;
2548;SDS011;1284;53.520;10.248;2023-02-26T09:58:18;0.20;;;0.20;;
2548;SDS011;1284;53.520;10.248;2023-02-26T10:01:03;0.38;;;0.38;;
2548;SDS011;1284;53.520;10.248;2023-02-26T10:03:45;0.10;;;0.10;;
2548;SDS011;1284;53.520;10.248;2023-02-26T10:06:25;0.20;;;0.20;;
2548;SDS011;1284;53.520;10.248;2023-02-26T10:09:05;0.10;;;0.10;;
2548;SDS011;1284;53.520;10.248;2023-02-26T10:17:19;0.10;;;0.10;;
2548;SDS011;1284;53.520;10.248;2023-02-26T10:20:10;0.10;;;0.10;;
2548;SDS011;1284;53.520;10.248;2023-02-26T10:23:03;0.13;;;0.13;;
2548;SDS011;1284;53.520;10.248;2023-02-26T10:30:59;0.10;;;0.10;;
2548;SDS011;1284;53.520;10.248;2023-02-26T10:36:51;0.20;;;0.20;;
2548;SDS011;1284;53.520;10.248;2023-02-26T10:42:34;0.10;;;0.10;;
2548;SDS011;1284;53.520;10.248;2023-02-26T10:45:24;0.40;;;0.40;;
2548;SDS011;1284;53.520;10.248;2023-02-26T10:50:49;0.10;;;0.10;;
2548;SDS011;1284;53.520;10.248;2023-02-26T10:53:16;0.20;;;0.20;;
2548;SDS011;1284;53.520;10.248;2023-02-26T10:55:43;0.20;;;0.20;;
2548;SDS011;1284;53.520;10.248;2023-02-26T10:58:24;0.10;;;0.10;;
2548;SDS011;1284;53.520;10.248;2023-02-26T11:00:51;0.20;;;0.20;;
2548;SDS011;1284;53.520;10.248;2023-02-26T11:03:20;1.02;;;1.02;;
2548;SDS011;1284;53.520;10.248;2023-02-26T11:05:54;0.20;;;0.20;;
2548;SDS011;1284;53.520;10.248;2023-02-26T11:08:27;0.20;;;0.20;;
2548;SDS011;1284;53.520;10.248;2023-02-26T11:11:01;0.20;;;0.20;;
2548;SDS011;1284;53.520;10.248;2023-02-26T11:15:56;0.20;;;0.20;;
2548;SDS011;1284;53.520;10.248;2023-02-26T11:18:27;0.10;;;0.10;;
2548;SDS011;1284;53.520;10.248;2023-02-26T11:21:05;0.10;;;0.10;;
2548;SDS011;1284;53.520;10.248;2023-02-26T11:23:32;0.47;;;0.20;;
2548;SDS011;1284;53.520;10.248;2023-02-26T11:26:01;0.10;;;0.10;;
2548;SDS011;1284;53.520;10.248;2023-02-26T11:28:34;0.20;;;0.20;;
2548;SDS011;1284;53.520;10.248;2023-02-26T11:31:05;0.40;;;0.40;;
2548;SDS011;1284;53.520;10.248;2023-02-26T11:33:35;0.30;;;0.30;;
2548;SDS011;1284;53.520;10.248;2023-02-26T11:36:06;0.40;;;0.40;;
2548;SDS011;1284;53.520;10.248;2023-02-26T11:38:38;0.20;;;0.20;;
2548;SDS011;1284;53.520;10.248;2023-02-26T11:41:04;0.10;;;0.10;;
2548;SDS011;1284;53.520;10.248;2023-02-26T11:43:55;0.30;;;0.20;;
2548;SDS011;1284;53.520;10.248;2023-02-26T11:46:28;0.20;;;0.20;;
2548;SDS011;1284;53.520;10.248;2023-02-26T11:48:55;0.20;;;0.20;;
2548;SDS011;1284;53.520;10.248;2023-02-26T11:51:23;0.20;;;0.20;;
2548;SDS011;1284;53.520;10.248;2023-02-26T11:56:40;0.20;;;0.20;;
2548;SDS011;1284;53.520;10.248;2023-02-26T11:59:23;0.20;;;0.20;;
2548;SDS011;1284;53.520;10.248;2023-02-26T12:01:50;0.20;;;0.20;;
2548;SDS011;1284;53.520;10.248;2023-02-26T12:04:18;0.30;;;0.30;;
2548;SDS011;1284;53.520;10.248;2023-02-26T12:06:46;0.10;;;0.10;;
2548;SDS011;1284;53.520;10.248;2023-02-26T12:09:14;0.20;;;0.20;;
2548;SDS011;1284;53.520;10.248;2023-02-26T12:21:12;1.10;;;0.40;;
2548;SDS011;1284;53.520;10.248;2023-02-26T12:42:38;0.10;;;0.10;;
2548;SDS011;1284;53.520;10.248;2023-02-26T12:50:39;0.20;;;0.20;;
2548;SDS011;1284;53.520;10.248;2023-02-26T12:53:31;0.20;;;0.20;;
2548;SDS011;1284;53.520;10.248;2023-02-26T12:56:30;0.20;;;0.20;;
2548;SDS011;1284;53.520;10.248;2023-02-26T12:59:27;0.13;;;0.13;;
2548;SDS011;1284;53.520;10.248;2023-02-26T13:05:10;0.25;;;0.22;;
2548;SDS011;1284;53.520;10.248;2023-02-26T13:07:46;0.40;;;0.20;;
2548;SDS011;1284;53.520;10.248;2023-02-26T13:27:37;0.10;;;0.10;;
2548;SDS011;1284;53.520;10.248;2023-02-26T13:32:37;0.30;;;0.30;;
2548;SDS011;1284;53.520;10.248;2023-02-26T13:35:08;0.60;;;0.60;;
2548;SDS011;1284;53.520;10.248;2023-02-26T13:37:52;0.22;;;0.22;;
2548;SDS011;1284;53.520;10.248;2023-02-26T13:43:23;0.20;;;0.20;;
2548;SDS011;1284;53.520;10.248;2023-02-26T13:51:33;0.20;;;0.20;;
2548;SDS011;1284;53.520;10.248;2023-02-26T13:56:49;0.20;;;0.20;;
2548;SDS011;1284;53.520;10.248;2023-02-26T13:59:31;0.30;;;0.30;;
2548;SDS011;1284;53.520;10.248;2023-02-26T14:02:15;0.30;;;0.30;;
2548;SDS011;1284;53.520;10.248;2023-02-26T14:05:08;0.38;;;0.38;;
2548;SDS011;1284;53.520;10.248;2023-02-26T14:07:53;0.17;;;0.17;;
2548;SDS011;1284;53.520;10.248;2023-02-26T14:13:21;0.10;;;0.10;;
2548;SDS011;1284;53.520;10.248;2023-02-26T14:16:12;0.10;;;0.10;;
2548;SDS011;1284;53.520;10.248;2023-02-26T14:26:49;0.20;;;0.20;;
2548;SDS011;1284;53.520;10.248;2023-02-26T14:29:41;0.10;;;0.10;;
2548;SDS011;1284;53.520;10.248;2023-02-26T14:35:34;0.10;;;0.10;;
2548;SDS011;1284;53.520;10.248;2023-02-26T14:38:09;0.20;;;0.20;;
2548;SDS011;1284;53.520;10.248;2023-02-26T14:40:45;0.20;;;0.20;;
2548;SDS011;1284;53.520;10.248;2023-02-26T14:43:18;0.15;;;0.15;;
2548;SDS011;1284;53.520;10.248;2023-02-26T14:45:52;0.10;;;0.10;;
2548;SDS011;1284;53.520;10.248;2023-02-26T14:48:20;0.10;;;0.10;;
2548;SDS011;1284;53.520;10.248;2023-02-26T14:56:49;0.10;;;0.10;;
2548;SDS011;1284;53.520;10.248;2023-02-26T15:10:12;0.10;;;0.10;;
2548;SDS011;1284;53.520;10.248;2023-02-26T15:15:35;0.25;;;0.25;;
2548;SDS011;1284;53.520;10.248;2023-02-26T15:25:59;0.25;;;0.20;;
2548;SDS011;1284;53.520;10.248;2023-02-26T15:28:27;0.10;;;0.10;;
2548;SDS011;1284;53.520;10.248;2023-02-26T15:31:04;0.20;;;0.20;;
2548;SDS011;1284;53.520;10.248;2023-02-26T15:33:31;0.13;;;0.13;;
2548;SDS011;1284;53.520;10.248;2023-02-26T15:35:58;0.20;;;0.20;;
2548;SDS011;1284;53.520;10.248;2023-02-26T15:38:24;0.35;;;0.22;;
2548;SDS011;1284;53.520;10.248;2023-02-26T15:40:52;0.47;;;0.45;;
2548;SDS011;1284;53.520;10.248;2023-02-26T15:43:24;0.20;;;0.20;;
2548;SDS011;1284;53.520;10.248;2023-02-26T15:45:53;0.20;;;0.20;;
2548;SDS011;1284;53.520;10.248;2023-02-26T15:48:28;0.38;;;0.30;;
2548;SDS011;1284;53.520;10.248;2023-02-26T15:51:00;0.20;;;0.20;;
2548;SDS011;1284;53.520;10.248;2023-02-26T15:53:31;0.20;;;0.20;;
2548;SDS011;1284;53.520;10.248;2023-02-26T15:56:02;0.35;;;0.25;;
2548;SDS011;1284;53.520;10.248;2023-02-26T15:58:33;0.20;;;0.20;;
2548;SDS011;1284;53.520;10.248;2023-02-26T16:01:02;0.20;;;0.20;;
2548;SDS011;1284;53.520;10.248;2023-02-26T16:03:30;0.20;;;0.20;;
2548;SDS011;1284;53.520;10.248;2023-02-26T16:06:00;0.20;;;0.20;;
2548;SDS011;1284;53.520;10.248;2023-02-26T16:08:36;0.20;;;0.20;;
2548;SDS011;1284;53.520;10.248;2023-02-26T16:11:05;0.40;;;0.40;;
2548;SDS011;1284;53.520;10.248;2023-02-26T16:13:32;1.98;;;0.45;;
2548;SDS011;1284;53.520;10.248;2023-02-26T16:16:16;0.25;;;0.25;;
2548;SDS011;1284;53.520;10.248;2023-02-26T16:18:46;0.10;;;0.10;;
2548;SDS011;1284;53.520;10.248;2023-02-26T16:21:17;0.20;;;0.20;;
2548;SDS011;1284;53.520;10.248;2023-02-26T16:23:52;0.20;;;0.20;;
2548;SDS011;1284;53.520;10.248;2023-02-26T16:26:21;0.30;;;0.30;;
2548;SDS011;1284;53.520;10.248;2023-02-26T16:29:06;0.20;;;0.20;;
2548;SDS011;1284;53.520;10.248;2023-02-26T16:31:40;0.40;;;0.40;;
2548;SDS011;1284;53.520;10.248;2023-02-26T16:36:54;0.20;;;0.20;;
2548;SDS011;1284;53.520;10.248;2023-02-26T16:39:24;0.20;;;0.20;;
2548;SDS011;1284;53.520;10.248;2023-02-26T16:42:35;0.40;;;0.40;;
2548;SDS011;1284;53.520;10.248;2023-02-26T16:47:10;1.55;;;0.73;;
2548;SDS011;1284;53.520;10.248;2023-02-26T16:49:36;0.20;;;0.20;;
2548;SDS011;1284;53.520;10.248;2023-02-26T16:52:04;0.30;;;0.30;;
2548;SDS011;1284;53.520;10.248;2023-02-26T16:54:36;0.30;;;0.30;;
2548;SDS011;1284;53.520;10.248;2023-02-26T16:57:05;0.20;;;0.20;;
2548;SDS011;1284;53.520;10.248;2023-02-26T16:59:36;0.20;;;0.20;;
2548;SDS011;1284;53.520;10.248;2023-02-26T17:02:04;0.20;;;0.20;;
2548;SDS011;1284;53.520;10.248;2023-02-26T17:04:39;0.28;;;0.28;;
2548;SDS011;1284;53.520;10.248;2023-02-26T17:07:16;0.63;;;0.63;;
2548;SDS011;1284;53.520;10.248;2023-02-26T17:09:50;0.30;;;0.30;;
2548;SDS011;1284;53.520;10.248;2023-02-26T17:15:11;0.20;;;0.20;;
2548;SDS011;1284;53.520;10.248;2023-02-26T17:17:41;0.50;;;0.50;;
2548;SDS011;1284;53.520;10.248;2023-02-26T17:20:08;0.30;;;0.30;;
2548;SDS011;1284;53.520;10.248;2023-02-26T17:22:34;0.38;;;0.38;;
2548;SDS011;1284;53.520;10.248;2023-02-26T17:25:00;0.32;;;0.32;;
2548;SDS011;1284;53.520;10.248;2023-02-26T17:27:33;0.20;;;0.20;;
2548;SDS011;1284;53.520;10.248;2023-02-26T17:30:01;0.20;;;0.20;;
2548;SDS011;1284;53.520;10.248;2023-02-26T17:32:28;0.30;;;0.30;;
2548;SDS011;1284;53.520;10.248;2023-02-26T17:34:55;0.22;;;0.22;;
2548;SDS011;1284;53.520;10.248;2023-02-26T17:37:21;0.20;;;0.20;;
2548;SDS011;1284;53.520;10.248;2023-02-26T17:39:49;0.35;;;0.35;;
2548;SDS011;1284;53.520;10.248;2023-02-26T17:42:17;0.30;;;0.30;;
2548;SDS011;1284;53.520;10.248;2023-02-26T17:44:45;0.30;;;0.30;;
2548;SDS011;1284;53.520;10.248;2023-02-26T17:47:15;0.60;;;0.60;;
2548;SDS011;1284;53.520;10.248;2023-02-26T17:49:43;0.35;;;0.35;;
2548;SDS011;1284;53.520;10.248;2023-02-26T17:52:09;0.65;;;0.60;;
2548;SDS011;1284;53.520;10.248;2023-02-26T17:54:34;1.33;;;1.23;;
2548;SDS011;1284;53.520;10.248;2023-02-26T17:57:00;0.70;;;0.70;;
2548;SDS011;1284;53.520;10.248;2023-02-26T17:59:25;0.70;;;0.70;;
2548;SDS011;1284;53.520;10.248;2023-02-26T18:01:51;0.70;;;0.70;;
2548;SDS011;1284;53.520;10.248;2023-02-26T18:04:17;0.88;;;0.75;;
2548;SDS011;1284;53.520;10.248;2023-02-26T18:06:43;1.85;;;1.73;;
2548;SDS011;1284;53.520;10.248;2023-02-26T18:09:09;1.45;;;1.38;;
2548;SDS011;1284;53.520;10.248;2023-02-26T18:11:36;0.70;;;0.70;;
2548;SDS011;1284;53.520;10.248;2023-02-26T18:14:02;1.13;;;1.13;;
2548;SDS011;1284;53.520;10.248;2023-02-26T18:16:30;1.63;;;1.52;;
2548;SDS011;1284;53.520;10.248;2023-02-26T18:18:58;3.70;;;2.17;;
2548;SDS011;1284;53.520;10.248;2023-02-26T18:21:24;1.58;;;1.38;;
2548;SDS011;1284;53.520;10.248;2023-02-26T18:23:51;2.42;;;2.15;;
2548;SDS011;1284;53.520;10.248;2023-02-26T18:26:17;2.30;;;2.05;;
2548;SDS011;1284;53.520;10.248;2023-02-26T18:28:47;1.45;;;1.05;;
2548;SDS011;1284;53.520;10.248;2023-02-26T18:31:15;1.05;;;0.95;;
2548;SDS011;1284;53.520;10.248;2023-02-26T18:33:40;0.95;;;0.95;;
2548;SDS011;1284;53.520;10.248;2023-02-26T18:36:30;1.38;;;1.23;;